Time;durP1;ratioP1;P1;durP2;ratioP2;P2;SDS_P1;SDS_P2;PMS_P1;PMS_P2;Temp;Humidity;BMP_temperature;BMP_pressure;BME280_temperature;BME280_humidity;BME280_pressure;Samples;Min_cycle;Max_cycle;Signal;HPM_P1;HPM_P2
2022/06/25 00:01:32;;;;;;;;;8.00;8.00;;;;;18.92;66.54;99128.69;6298490;20;2741905;-69
2022/06/25 00:04:00;;;;;;;;;8.00;8.00;;;;;18.60;68.73;99119.28;6268254;20;2746129;-69
2022/06/25 00:06:29;;;;;;;;;8.50;8.50;;;;;19.13;66.52;99122.84;6271891;20;2746239;-69
2022/06/25 00:08:56;;;;;;;;;5.00;5.00;;;;;19.11;65.61;99123.00;6274157;20;2755521;-69
2022/06/25 00:14:14;;;;;;;;;8.00;8.00;;;;;18.62;67.50;99122.69;6324287;20;2752335;-69
2022/06/25 00:16:42;;;;;;;;;7.00;6.50;;;;;19.01;66.14;99116.81;6274123;20;2749206;-69
2022/06/25 00:19:12;;;;;;;;;9.00;9.00;;;;;19.19;63.98;99120.31;6292498;20;2735700;-70
2022/06/25 00:21:41;;;;;;;;;9.00;6.60;;;;;19.22;63.49;99119.13;6326101;20;2738835;-68
2022/06/25 00:24:11;;;;;;;;;8.80;8.60;;;;;19.19;63.90;99114.00;6325160;20;2754903;-69
2022/06/25 00:26:41;;;;;;;;;7.40;7.40;;;;;19.39;62.68;99120.06;6297284;20;2748244;-69
2022/06/25 00:29:11;;;;;;;;;8.60;7.00;;;;;19.47;61.59;99101.88;6293175;20;2737759;-69
2022/06/25 00:31:41;;;;;;;;;12.00;8.60;;;;;19.49;61.69;99097.13;6323691;20;2769057;-70
2022/06/25 00:34:11;;;;;;;;;10.20;10.00;;;;;19.00;63.36;99099.63;6290670;20;2786709;-69
2022/06/25 00:36:40;;;;;;;;;8.00;7.00;;;;;19.07;64.02;99089.81;6272758;20;2735729;-69
2022/06/25 00:39:08;;;;;;;;;10.00;9.00;;;;;18.84;65.17;99099.56;6271199;20;2767602;-70
2022/06/25 00:41:35;;;;;;;;;9.00;8.50;;;;;19.03;64.88;99099.31;6273054;20;2744074;-69
2022/06/25 00:44:10;;;;;;;;;7.00;7.00;;;;;19.23;64.61;99091.75;6273664;20;2737754;-69
2022/06/25 00:46:40;;;;;;;;;10.00;10.00;;;;;19.29;64.36;99103.84;6293228;20;2789872;-69
2022/06/25 00:49:09;;;;;;;;;9.00;9.00;;;;;19.38;62.86;99108.31;6296068;20;2756629;-69
2022/06/25 00:51:41;;;;;;;;;10.20;9.80;;;;;19.58;62.74;99108.88;6288248;20;2777359;-69
2022/06/25 00:54:17;;;;;;;;;8.71;7.29;;;;;19.82;59.92;99099.91;6312658;20;3475289;-68
2022/06/25 00:56:52;;;;;;;;;7.20;7.00;;;;;19.88;60.38;99104.72;6324785;20;2732591;-68
2022/06/25 00:59:29;;;;;;;;;10.60;9.60;;;;;19.75;61.24;99104.34;6322774;20;2787742;-69
2022/06/25 01:01:59;;;;;;;;;10.00;10.00;;;;;19.70;62.38;99107.56;6267907;20;2796146;-69
2022/06/25 01:04:27;;;;;;;;;9.00;7.50;;;;;19.48;62.57;99111.75;6299590;20;2752375;-69
2022/06/25 01:06:57;;;;;;;;;9.80;9.80;;;;;19.33;63.47;99104.38;6292837;20;2792063;-70
2022/06/25 01:09:27;;;;;;;;;13.40;10.40;;;;;19.39;63.40;99114.59;6292822;20;2790018;-69
2022/06/25 01:11:55;;;;;;;;;12.33;7.00;;;;;19.34;63.46;99114.25;6268401;20;2763832;-69
2022/06/25 01:14:24;;;;;;;;;12.33;8.00;;;;;18.82;66.59;99113.31;6297319;20;2772214;-70
2022/06/25 01:16:52;;;;;;;;;11.00;10.00;;;;;18.65;66.68;99117.78;6304651;20;2789838;-70
2022/06/25 01:19:22;;;;;;;;;10.60;9.20;;;;;18.70;66.93;99117.31;6294248;20;2777329;-70
2022/06/25 01:21:52;;;;;;;;;81.00;76.33;;;;;19.01;64.10;99111.38;6267815;20;3644015;-70
2022/06/25 01:24:21;;;;;;;;;100.00;85.00;;;;;19.24;62.63;99120.66;6267085;20;3689907;-69
2022/06/25 01:26:50;;;;;;;;;31.67;29.00;;;;;19.13;63.21;99120.13;6304056;20;3583589;-68
2022/06/25 01:29:18;;;;;;;;;24.00;22.33;;;;;19.25;63.77;99119.66;6270015;20;3582574;-69
2022/06/25 01:31:48;;;;;;;;;70.33;54.00;;;;;19.36;62.84;99115.78;6267756;20;3634719;-69
2022/06/25 01:34:20;;;;;;;;;392.57;295.43;;;;;19.25;63.13;99119.66;6267968;20;2534701;-70
2022/06/25 01:36:49;;;;;;;;;270.50;209.00;;;;;19.10;64.23;99110.41;6266736;20;2903466;-68
2022/06/25 01:39:17;;;;;;;;;82.00;70.50;;;;;19.40;61.76;99117.16;6297320;20;1921102;-70
2022/06/25 01:41:47;;;;;;;;;135.67;111.67;;;;;19.25;62.78;99118.81;6268206;20;3708591;-69
2022/06/25 01:44:16;;;;;;;;;65.00;49.00;;;;;19.34;62.08;99106.94;6266818;20;3451416;-69
2022/06/25 01:46:44;;;;;;;;;18.00;16.00;;;;;19.48;61.16;99116.31;6302531;20;3567964;-70
2022/06/25 01:49:14;;;;;;;;;16.67;13.67;;;;;19.77;59.99;99118.63;6263036;20;2500253;-69
2022/06/25 01:51:42;;;;;;;;;13.00;11.00;;;;;19.75;59.85;99115.25;6294102;20;3515885;-68
2022/06/25 01:54:11;;;;;;;;;12.00;9.00;;;;;19.57;60.58;99117.22;6302775;20;2770075;-69
2022/06/25 01:56:39;;;;;;;;;11.50;10.00;;;;;19.44;61.01;99125.84;6269015;20;3382612;-68
2022/06/25 01:59:07;;;;;;;;;17.00;15.00;;;;;19.34;61.39;99123.25;6298236;20;2485727;-69
2022/06/25 02:01:36;;;;;;;;;13.00;11.67;;;;;19.34;62.19;99120.53;6270825;20;2806520;-69
2022/06/25 02:04:04;;;;;;;;;11.00;9.00;;;;;19.38;63.18;99130.09;6299527;20;2776327;-68
2022/06/25 02:06:33;;;;;;;;;9.60;9.60;;;;;19.10;65.21;99120.44;6293766;20;2780461;-68
2022/06/25 02:09:03;;;;;;;;;9.00;9.00;;;;;18.97;66.02;99132.63;6295520;20;2738802;-69
2022/06/25 02:11:32;;;;;;;;;8.00;8.00;;;;;19.05;65.54;99127.22;6294023;20;2748202;-68
2022/06/25 02:14:01;;;;;;;;;8.00;8.00;;;;;18.79;66.43;99129.13;6323371;20;2754415;-69
2022/06/25 02:16:29;;;;;;;;;12.00;8.00;;;;;18.75;67.82;99133.19;6302391;20;2767020;-70
2022/06/25 02:18:59;;;;;;;;;8.80;8.80;;;;;18.89;66.38;99135.31;6293727;20;2752354;-69
2022/06/25 02:21:28;;;;;;;;;15.00;11.00;;;;;19.24;63.74;99133.44;6268008;20;2802400;-70
2022/06/25 02:23:57;;;;;;;;;9.00;9.00;;;;;18.99;64.47;99129.75;6297599;20;3471088;-69
2022/06/25 02:26:25;;;;;;;;;11.33;11.33;;;;;19.22;62.99;99135.44;6301967;20;3521301;-69
2022/06/25 02:28:53;;;;;;;;;11.50;9.50;;;;;19.19;62.94;99141.22;6308826;20;2779593;-70
2022/06/25 02:31:23;;;;;;;;;9.60;9.20;;;;;19.44;61.67;99143.03;6294481;20;2772130;-69
2022/06/25 02:33:53;;;;;;;;;8.40;8.40;;;;;19.41;61.20;99139.81;6296604;20;2744012;-69
2022/06/25 02:36:21;;;;;;;;;9.00;9.00;;;;;19.17;62.17;99132.38;6270156;20;2754462;-69
2022/06/25 02:38:49;;;;;;;;;10.00;9.00;;;;;19.26;61.69;99132.25;6302319;20;2772216;-69
2022/06/25 02:41:18;;;;;;;;;10.00;10.00;;;;;18.90;63.39;99128.00;6271082;20;2791985;-71
2022/06/25 02:43:46;;;;;;;;;10.00;8.33;;;;;19.20;62.98;99132.06;6302584;20;2770104;-70
2022/06/25 02:46:14;;;;;;;;;9.50;8.00;;;;;19.21;62.44;99131.03;6308684;20;2752342;-70
2022/06/25 02:48:43;;;;;;;;;11.00;11.00;;;;;19.29;62.24;99131.06;6268559;20;2791053;-70
2022/06/25 02:51:12;;;;;;;;;9.00;8.00;;;;;19.25;61.95;99127.00;6325199;20;2761864;-70
2022/06/25 02:53:41;;;;;;;;;10.00;9.00;;;;;19.36;61.38;99134.00;6268221;20;2773310;-69
2022/06/25 02:58:56;;;;;;;;;10.00;10.00;;;;;19.44;60.54;99128.59;6272907;20;2798333;-70
2022/06/25 03:01:28;;;;;;;;;10.00;10.00;;;;;19.22;61.90;99132.72;6300649;20;2796107;-69
2022/06/25 03:03:59;;;;;;;;;9.40;8.00;;;;;19.47;60.58;99145.44;6323621;20;2753238;-70
2022/06/25 03:06:28;;;;;;;;;10.00;8.00;;;;;19.36;60.54;99143.00;6300325;20;2752402;-68
2022/06/25 03:08:57;;;;;;;;;7.80;7.80;;;;;19.44;60.18;99147.63;6328034;20;2750405;-69
2022/06/25 03:11:25;;;;;;;;;9.00;9.00;;;;;19.61;59.65;99140.38;6302478;20;2750301;-70
2022/06/25 03:13:53;;;;;;;;;10.00;8.50;;;;;19.47;60.65;99139.97;6273677;20;2769029;-70
2022/06/25 03:16:22;;;;;;;;;11.67;9.00;;;;;19.38;60.59;99143.72;6272691;20;2775353;-71
2022/06/25 03:18:52;;;;;;;;;8.60;8.00;;;;;19.17;61.64;99140.53;6330059;20;2745093;-70
2022/06/25 03:21:20;;;;;;;;;11.00;8.33;;;;;19.26;60.40;99131.41;6301846;20;2770179;-71
2022/06/25 03:23:52;;;;;;;;;9.83;9.17;;;;;19.33;60.74;99137.06;6345730;20;1811327;-71
2022/06/25 03:26:21;;;;;;;;;8.00;8.00;;;;;19.36;60.48;99147.63;6325255;20;2738907;-69
2022/06/25 03:28:49;;;;;;;;;10.50;9.00;;;;;19.07;62.32;99137.94;6305475;20;2775366;-68
2022/06/25 03:31:21;;;;;;;;;11.80;10.00;;;;;19.19;60.80;99130.34;6292444;20;2781566;-69
2022/06/25 03:33:49;;;;;;;;;9.00;9.00;;;;;19.42;60.15;99142.34;6270412;20;2746198;-70
2022/06/25 03:36:19;;;;;;;;;10.20;9.40;;;;;19.23;61.60;99143.47;6295316;20;2779459;-70
2022/06/25 03:38:48;;;;;;;;;9.33;9.33;;;;;19.53;59.33;99149.34;6269609;20;2771155;-68
2022/06/25 03:41:33;;;;;;;;;9.60;9.60;;;;;19.32;61.53;99147.06;6330109;20;2786741;-68
2022/06/25 03:44:10;;;;;;;;;8.80;8.80;;;;;19.73;58.98;99149.97;6295252;20;2753401;-68
2022/06/25 03:46:40;;;;;;;;;10.67;10.67;;;;;19.51;60.17;99152.25;6267660;20;2781531;-68
2022/06/25 03:49:09;;;;;;;;;11.33;10.00;;;;;19.82;58.03;99151.69;6299425;20;2784904;-68
2022/06/25 03:51:38;;;;;;;;;10.67;9.67;;;;;19.59;59.90;99153.28;6297532;20;3499253;-68
2022/06/25 03:54:06;;;;;;;;;11.00;10.00;;;;;19.62;59.61;99158.44;6299021;20;3502331;-68
2022/06/25 03:56:34;;;;;;;;;11.00;9.00;;;;;19.61;59.82;99156.69;6308819;20;2776516;-69
2022/06/25 03:59:04;;;;;;;;;10.00;10.00;;;;;19.90;57.86;99148.97;6296847;20;2791950;-68
2022/06/25 04:01:32;;;;;;;;;9.33;9.33;;;;;19.86;58.58;99155.78;6262789;20;3488803;-68
2022/06/25 04:04:02;;;;;;;;;9.25;8.75;;;;;20.23;56.89;99159.94;6321736;20;2647225;-72
2022/06/25 04:06:33;;;;;;;;;8.00;8.00;;;;;20.45;55.20;99172.03;6308471;20;2748176;-69
2022/06/25 04:09:03;;;;;;;;;9.00;8.33;;;;;20.52;54.62;99161.31;6272004;20;2752345;-70
2022/06/25 04:11:31;;;;;;;;;8.00;8.00;;;;;20.66;54.31;99171.53;6309500;20;2737784;-70
2022/06/25 04:14:00;;;;;;;;;9.67;9.00;;;;;20.52;54.82;99166.75;6270585;20;2773325;-70
2022/06/25 04:16:30;;;;;;;;;9.20;7.60;;;;;20.50;55.91;99171.53;6325613;20;2773402;-71
2022/06/25 04:18:59;;;;;;;;;10.33;10.00;;;;;20.51;56.58;99165.03;6265081;20;2798784;-70
2022/06/25 04:21:28;;;;;;;;;8.67;8.67;;;;;20.47;56.93;99159.09;6300276;20;2746092;-70
2022/06/25 04:23:57;;;;;;;;;8.40;8.00;;;;;20.14;59.07;99158.19;6324100;20;2741993;-70
2022/06/25 04:26:26;;;;;;;;;9.00;9.00;;;;;19.85;60.05;99159.56;6296704;20;2760792;-71
2022/06/25 04:29:04;;;;;;;;;8.33;8.33;;;;;19.89;60.92;99160.91;6300517;20;2755491;-71
2022/06/25 04:31:36;;;;;;;;;7.60;7.40;;;;;20.03;59.97;99158.53;6325526;20;2745135;-68
2022/06/25 04:34:06;;;;;;;;;11.33;9.33;;;;;20.10;59.39;99156.84;6299445;20;2771190;-69
2022/06/25 04:36:37;;;;;;;;;7.80;7.80;;;;;20.16;59.70;99158.91;6325487;20;2750250;-68
2022/06/25 04:39:06;;;;;;;;;9.20;8.80;;;;;20.11;60.82;99158.53;6290960;20;2758719;-69
2022/06/25 04:41:36;;;;;;;;;8.80;8.60;;;;;20.18;60.29;99156.88;6296373;20;2756572;-68
2022/06/25 04:44:06;;;;;;;;;7.80;6.80;;;;;20.11;60.94;99164.84;6297223;20;2737871;-69
2022/06/25 04:46:35;;;;;;;;;8.67;7.67;;;;;19.92;60.24;99168.75;6299480;20;2751288;-69
2022/06/25 04:49:04;;;;;;;;;6.60;6.60;;;;;20.31;58.55;99173.56;6325042;20;2744007;-68
2022/06/25 04:51:33;;;;;;;;;9.00;9.00;;;;;20.44;58.00;99164.03;6300205;20;2745160;-68
2022/06/25 04:54:03;;;;;;;;;7.80;7.80;;;;;20.32;59.82;99164.34;6326089;20;2741907;-68
2022/06/25 04:56:32;;;;;;;;;7.60;7.60;;;;;20.30;60.37;99168.28;6324378;20;2754433;-69
2022/06/25 04:59:02;;;;;;;;;7.80;7.80;;;;;20.58;58.82;99174.28;6295354;20;2733601;-69
2022/06/25 05:01:30;;;;;;;;;9.00;6.67;;;;;20.67;58.71;99176.00;6302622;20;2731584;-69
2022/06/25 05:04:00;;;;;;;;;8.40;7.60;;;;;20.67;58.64;99165.09;6324133;20;2748237;-68
2022/06/25 05:06:30;;;;;;;;;8.20;8.20;;;;;21.15;58.54;99166.00;6294147;20;2742996;-69
2022/06/25 05:08:58;;;;;;;;;9.00;9.00;;;;;21.27;57.52;99171.91;6310194;20;2762785;-69
2022/06/25 05:11:27;;;;;;;;;9.00;9.00;;;;;21.56;56.60;99168.59;6301206;20;2737879;-69
2022/06/25 05:13:57;;;;;;;;;10.20;8.80;;;;;21.89;55.17;99165.69;6325912;20;2778404;-68
2022/06/25 05:16:27;;;;;;;;;10.20;7.80;;;;;22.17;54.34;99162.44;6296042;20;2763820;-68
2022/06/25 05:18:56;;;;;;;;;9.00;8.00;;;;;21.90;54.77;99170.13;6290569;20;2754417;-67
2022/06/25 05:21:26;;;;;;;;;8.00;8.00;;;;;22.56;53.31;99176.00;6292793;20;2744577;-69
2022/06/25 05:23:55;;;;;;;;;8.00;8.00;;;;;22.29;52.84;99171.94;6294523;20;2749210;-70
2022/06/25 05:26:24;;;;;;;;;7.67;7.67;;;;;22.31;52.48;99187.16;6270934;20;2744041;-70
2022/06/25 05:28:52;;;;;;;;;8.00;8.00;;;;;22.24;53.91;99196.25;6301981;20;2754448;-69
2022/06/25 05:31:22;;;;;;;;;7.80;7.80;;;;;21.82;53.33;99189.31;6326009;20;2734684;-68
2022/06/25 05:33:52;;;;;;;;;7.60;6.80;;;;;22.07;54.14;99185.41;6293378;20;2731538;-68
2022/06/25 05:36:22;;;;;;;;;9.80;9.40;;;;;21.66;54.69;99188.34;6321364;20;2775332;-69
2022/06/25 05:38:51;;;;;;;;;8.00;8.00;;;;;22.32;53.23;99193.47;6294577;20;2746079;-68
2022/06/25 05:41:20;;;;;;;;;10.33;9.33;;;;;23.08;51.19;99193.50;6306647;20;2781629;-68
2022/06/25 05:43:49;;;;;;;;;9.60;9.60;;;;;23.36;50.83;99194.56;6323399;20;2791949;-69
2022/06/25 05:46:18;;;;;;;;;8.33;7.67;;;;;23.43;49.80;99191.91;6267591;20;3461741;-69
2022/06/25 05:48:46;;;;;;;;;9.00;9.00;;;;;23.85;49.74;99195.88;6300793;20;2756509;-69
2022/06/25 05:51:15;;;;;;;;;9.33;9.00;;;;;23.90;48.44;99193.41;6296643;20;2763805;-69
2022/06/25 05:53:46;;;;;;;;;11.00;9.67;;;;;24.20;47.47;99204.31;6295438;20;3503349;-69
2022/06/25 05:56:14;;;;;;;;;9.00;8.67;;;;;24.01;47.66;99205.75;6297317;20;2758592;-68
2022/06/25 05:58:43;;;;;;;;;9.33;8.00;;;;;23.93;47.16;99203.97;6300374;20;2758573;-69
2022/06/25 06:01:13;;;;;;;;;7.20;6.40;;;;;24.21;48.02;99201.34;6325726;20;2740888;-68
2022/06/25 06:03:42;;;;;;;;;9.00;9.00;;;;;24.57;47.18;99202.41;6292366;20;2751397;-70
2022/06/25 06:06:11;;;;;;;;;11.33;9.33;;;;;24.39;47.39;99211.06;6264584;20;3499272;-69
2022/06/25 06:08:39;;;;;;;;;9.00;9.00;;;;;24.74;47.95;99212.88;6305591;20;2750277;-69
2022/06/25 06:11:08;;;;;;;;;13.67;11.00;;;;;25.13;46.55;99208.75;6302733;20;3518410;-68
2022/06/25 06:13:36;;;;;;;;;11.67;8.33;;;;;25.18;46.03;99202.72;6301520;20;2769050;-68
2022/06/25 06:16:05;;;;;;;;;10.00;9.67;;;;;25.22;46.36;99204.00;6299968;20;2479460;-68
2022/06/25 06:18:34;;;;;;;;;13.67;11.67;;;;;25.23;46.41;99204.88;6296143;20;3512842;-68
2022/06/25 06:21:03;;;;;;;;;13.67;12.33;;;;;25.63;45.09;99211.44;6267731;20;2796081;-68
2022/06/25 06:23:32;;;;;;;;;12.00;12.00;;;;;25.57;45.29;99220.50;6297175;20;3508621;-69
2022/06/25 06:26:00;;;;;;;;;14.00;12.33;;;;;25.58;45.78;99214.78;6264761;20;3523289;-71
2022/06/25 06:28:29;;;;;;;;;13.67;12.67;;;;;26.05;45.70;99210.38;6265262;20;2485729;-69
2022/06/25 06:30:57;;;;;;;;;13.00;13.00;;;;;26.59;43.41;99222.38;6297064;20;2810692;-68
2022/06/25 06:33:26;;;;;;;;;12.67;11.00;;;;;27.26;42.93;99216.94;6267250;20;3505555;-68
2022/06/25 06:35:55;;;;;;;;;11.00;9.67;;;;;27.11;42.30;99214.34;6296894;20;3502302;-68
2022/06/25 06:38:23;;;;;;;;;10.67;10.00;;;;;26.96;42.86;99222.00;6296195;20;3510444;-68
2022/06/25 06:40:52;;;;;;;;;12.67;11.33;;;;;27.05;42.62;99217.97;6265171;20;3529444;-68
2022/06/25 06:43:21;;;;;;;;;11.33;10.00;;;;;27.57;40.91;99224.50;6264112;20;3515919;-68
2022/06/25 06:45:50;;;;;;;;;9.00;9.00;;;;;27.58;39.82;99226.19;6301432;20;2758591;-67
2022/06/25 06:48:18;;;;;;;;;12.33;9.67;;;;;27.81;40.69;99231.25;6303213;20;2785816;-68
2022/06/25 06:50:47;;;;;;;;;9.00;9.00;;;;;27.81;39.58;99230.41;6296599;20;2751328;-68
2022/06/25 06:53:16;;;;;;;;;9.33;9.00;;;;;27.94;38.69;99227.59;6296854;20;2754447;-68
2022/06/25 06:55:44;;;;;;;;;9.00;9.00;;;;;28.72;38.60;99232.91;6306556;20;2752373;-68
2022/06/25 06:58:13;;;;;;;;;12.00;9.00;;;;;28.51;38.43;99225.81;6299375;20;2772267;-70
2022/06/25 07:00:42;;;;;;;;;7.67;7.67;;;;;28.97;38.03;99213.59;6297862;20;2748208;-70
2022/06/25 07:03:11;;;;;;;;;9.33;8.33;;;;;29.24;37.64;99225.28;6299845;20;2759666;-68
2022/06/25 07:05:39;;;;;;;;;9.67;8.00;;;;;29.21;38.53;99214.69;6295567;20;2761701;-68
2022/06/25 07:08:08;;;;;;;;;9.67;9.67;;;;;29.39;36.79;99227.69;6298068;20;2775263;-68
2022/06/25 07:10:36;;;;;;;;;9.33;9.00;;;;;28.88;38.75;99218.56;6298212;20;2759612;-68
2022/06/25 07:13:05;;;;;;;;;7.00;7.00;;;;;29.70;37.52;99214.81;6306242;20;2733619;-68
2022/06/25 07:15:34;;;;;;;;;11.00;10.00;;;;;29.25;37.11;99221.47;6301538;20;2784641;-69
2022/06/25 07:18:02;;;;;;;;;9.00;9.00;;;;;29.66;36.91;99213.59;6310188;20;2744878;-69
2022/06/25 07:20:31;;;;;;;;;8.33;8.33;;;;;29.93;37.36;99208.59;6311925;20;2741986;-70
2022/06/25 07:22:59;;;;;;;;;8.67;8.67;;;;;29.36;37.01;99217.09;6304053;20;2747128;-70
2022/06/25 07:25:28;;;;;;;;;8.67;8.67;;;;;30.14;36.44;99216.41;6309684;20;2752328;-70
2022/06/25 07:27:57;;;;;;;;;7.67;7.67;;;;;29.85;36.72;99212.53;6303513;20;2752363;-70
2022/06/25 07:30:25;;;;;;;;;8.00;8.00;;;;;30.23;36.71;99205.91;6313173;20;2742979;-69
2022/06/25 07:32:54;;;;;;;;;11.67;8.67;;;;;29.80;36.39;99212.38;6307824;20;2770114;-68
2022/06/25 07:35:22;;;;;;;;;9.00;9.00;;;;;29.69;36.43;99221.44;6312409;20;2752384;-68
2022/06/25 07:37:51;;;;;;;;;9.00;9.00;;;;;30.11;36.83;99216.03;6311492;20;2754558;-66
2022/06/25 07:40:28;;;;;;;;;8.67;8.67;;;;;29.68;36.52;99220.59;6304601;20;2750318;-68
2022/06/25 07:42:56;;;;;;;;;9.00;9.00;;;;;30.53;35.79;99213.34;6301439;20;3476292;-70
2022/06/25 07:45:25;;;;;;;;;11.00;8.67;;;;;30.96;35.48;99213.09;6309423;20;2772241;-68
2022/06/25 07:47:53;;;;;;;;;8.00;8.00;;;;;30.56;36.14;99210.94;6302170;20;2736707;-68
2022/06/25 07:53:09;;;;;;;;;9.67;9.67;;;;;30.63;36.48;99217.22;6306899;20;2782092;-68
2022/06/25 07:55:37;;;;;;;;;9.67;8.67;;;;;30.97;35.84;99208.41;6300116;20;3476295;-69
2022/06/25 07:58:06;;;;;;;;;8.67;8.67;;;;;31.29;36.20;99222.78;6308336;20;2752472;-69
2022/06/25 08:00:35;;;;;;;;;9.00;9.00;;;;;31.78;34.56;99233.63;6311427;20;2750292;-69
2022/06/25 08:03:04;;;;;;;;;8.67;8.67;;;;;31.71;34.48;99226.28;6310155;20;2754489;-69
2022/06/25 08:05:35;;;;;;;;;7.67;7.67;;;;;31.57;34.48;99232.31;6309250;20;2749238;-68
2022/06/25 08:08:05;;;;;;;;;9.33;8.00;;;;;31.47;35.14;99235.72;6301722;20;3479391;-69
2022/06/25 08:10:34;;;;;;;;;7.67;7.67;;;;;31.08;35.57;99240.84;6302706;20;2747196;-70
2022/06/25 08:13:02;;;;;;;;;9.67;9.33;;;;;30.96;35.84;99240.00;6300141;20;3486751;-69
2022/06/25 08:15:31;;;;;;;;;9.67;9.67;;;;;31.08;36.13;99240.03;6301675;20;2781664;-69
2022/06/25 08:18:00;;;;;;;;;8.33;7.00;;;;;31.52;34.91;99246.94;6298759;20;3470114;-69
2022/06/25 08:20:29;;;;;;;;;10.00;9.00;;;;;31.45;35.32;99241.50;6307002;20;2769295;-68
2022/06/25 08:22:58;;;;;;;;;11.00;11.00;;;;;31.76;35.16;99245.00;6301351;20;3510682;-69
2022/06/25 08:25:26;;;;;;;;;9.67;9.67;;;;;32.26;33.80;99246.34;6304089;20;3489807;-68
2022/06/25 08:27:55;;;;;;;;;8.67;8.67;;;;;32.29;34.57;99235.56;6302896;20;3460639;-69
2022/06/25 08:30:25;;;;;;;;;10.00;10.00;;;;;31.75;35.13;99239.66;6304798;20;3514609;-69
2022/06/25 08:32:55;;;;;;;;;12.67;11.67;;;;;31.96;34.44;99241.81;6270052;20;3514854;-70
2022/06/25 08:35:24;;;;;;;;;11.00;11.00;;;;;32.74;34.14;99248.69;6272824;20;3500273;-70
2022/06/25 08:37:54;;;;;;;;;11.67;11.67;;;;;32.27;33.41;99245.25;6310536;20;2772179;-68
2022/06/25 08:40:23;;;;;;;;;10.67;10.67;;;;;32.38;33.67;99244.34;6307583;20;2483634;-73
2022/06/25 08:42:52;;;;;;;;;11.67;10.00;;;;;31.44;34.60;99227.91;6304396;20;3507548;-70
2022/06/25 08:45:20;;;;;;;;;9.00;9.00;;;;;32.44;34.04;99246.16;6275061;20;3471104;-69
2022/06/25 08:47:52;;;;;;;;;12.00;10.00;;;;;32.31;33.93;99250.06;6303200;20;3507538;-72
2022/06/25 08:50:22;;;;;;;;;11.00;11.00;;;;;31.63;35.47;99242.47;6308246;20;2483728;-68
2022/06/25 08:52:54;;;;;;;;;14.00;13.00;;;;;32.24;34.95;99249.38;6305315;20;3529564;-70
2022/06/25 08:55:36;;;;;;;;;12.67;11.00;;;;;31.86;34.71;99242.44;6302988;20;3515960;-69
2022/06/25 08:58:07;;;;;;;;;11.00;9.67;;;;;32.35;33.79;99242.91;6308409;20;2489881;-71
2022/06/25 09:00:42;;;;;;;;;13.00;13.00;;;;;32.31;34.22;99246.47;6308246;20;2483659;-70
2022/06/25 09:03:11;;;;;;;;;11.33;9.33;;;;;32.98;33.54;99252.16;6307801;20;2485770;-72
2022/06/25 09:05:43;;;;;;;;;10.00;9.67;;;;;32.25;33.98;99251.03;6309052;20;3489891;-74
2022/06/25 09:08:15;;;;;;;;;10.00;7.67;;;;;32.34;33.73;99248.75;6305329;20;3483611;-70
2022/06/25 09:10:53;;;;;;;;;12.00;10.00;;;;;32.88;33.63;99252.00;6306994;20;2484086;-71
2022/06/25 09:13:25;;;;;;;;;11.00;10.00;;;;;32.62;33.34;99250.69;6302904;20;3517951;-77
2022/06/25 09:15:54;;;;;;;;;11.33;11.33;;;;;32.58;34.63;99250.34;6276602;20;2483589;-71
2022/06/25 09:18:23;;;;;;;;;8.00;8.00;;;;;32.85;34.06;99255.28;6310527;20;2756566;-70
2022/06/25 09:21:10;;;;;;;;;11.67;9.00;;;;;33.32;32.59;99262.50;6308613;20;2768060;-75
2022/06/25 09:24:03;;;;;;;;;10.33;10.33;;;;;32.78;33.84;99268.50;6308418;20;3501297;-69
2022/06/25 09:26:32;;;;;;;;;12.00;11.00;;;;;33.01;32.71;99260.03;6302628;20;2802413;-75
2022/06/25 09:29:02;;;;;;;;;13.33;11.00;;;;;33.32;33.04;99260.56;6271409;20;3503396;-71
2022/06/25 09:31:38;;;;;;;;;9.67;9.00;;;;;33.51;32.53;99257.50;6270254;20;3477336;-69
2022/06/25 09:34:09;;;;;;;;;11.00;10.33;;;;;33.32;33.10;99255.00;6304828;20;2483578;-69
2022/06/25 09:36:38;;;;;;;;;10.00;9.67;;;;;33.80;32.23;99261.84;6307092;20;2764082;-73
2022/06/25 09:39:07;;;;;;;;;11.33;11.33;;;;;33.90;31.95;99260.31;6305027;20;2483607;-73
2022/06/25 09:41:53;;;;;;;;;13.33;12.00;;;;;33.36;32.56;99249.75;6307318;20;2485644;-72
2022/06/25 09:44:22;;;;;;;;;11.33;11.33;;;;;33.77;32.23;99250.41;6307786;20;2483763;-75
2022/06/25 09:47:00;;;;;;;;;11.00;11.00;;;;;34.34;31.90;99246.41;6303818;20;2797251;-71
2022/06/25 09:49:29;;;;;;;;;12.00;10.00;;;;;34.46;31.20;99259.09;6274303;20;2483582;-72
2022/06/25 09:52:02;;;;;;;;;14.00;12.33;;;;;33.51;32.58;99246.38;6306873;20;2483588;-71
2022/06/25 09:54:34;;;;;;;;;11.67;11.67;;;;;33.87;31.54;99247.75;6299933;20;2483612;-77
2022/06/25 09:57:03;;;;;;;;;13.00;13.00;;;;;33.08;32.13;99243.19;6303585;20;2483680;-75
2022/06/25 09:59:34;;;;;;;;;12.00;11.00;;;;;33.17;32.47;99241.66;6306462;20;2483622;-72
2022/06/25 10:02:04;;;;;;;;;14.50;12.00;;;;;33.11;32.27;99245.47;6301545;20;2797198;-72
2022/06/25 10:04:33;;;;;;;;;13.33;11.00;;;;;33.53;32.05;99228.31;6276433;20;3505608;-72
2022/06/25 10:07:10;;;;;;;;;10.00;10.00;;;;;33.87;31.97;99245.81;6307258;20;3503467;-72
2022/06/25 10:09:42;;;;;;;;;13.00;10.33;;;;;33.33;32.09;99245.53;6304252;20;3509642;-68
2022/06/25 10:12:11;;;;;;;;;13.00;13.00;;;;;33.87;31.40;99247.75;6268154;20;2785797;-65
2022/06/25 10:14:40;;;;;;;;;11.00;9.50;;;;;33.09;32.83;99235.69;6299982;20;2781564;-69
2022/06/25 10:17:10;;;;;;;;;10.00;9.00;;;;;34.12;31.21;99241.69;6302234;20;3488611;-68
2022/06/25 10:19:39;;;;;;;;;10.67;8.67;;;;;32.69;32.67;99233.84;6301955;20;3482565;-73
2022/06/25 10:22:08;;;;;;;;;11.00;11.00;;;;;33.33;31.63;99214.91;6301386;20;3514298;-72
2022/06/25 10:24:37;;;;;;;;;14.67;9.33;;;;;33.06;31.64;99222.28;6273390;20;2483613;-70
2022/06/25 10:27:05;;;;;;;;;8.33;8.33;;;;;33.54;31.94;99218.03;6306775;20;2762744;-67
2022/06/25 10:29:40;;;;;;;;;11.00;9.00;;;;;33.38;31.50;99214.16;6302517;20;3497162;-68
2022/06/25 10:32:18;;;;;;;;;11.67;10.00;;;;;33.75;31.78;99205.25;6300043;20;3497121;-74
2022/06/25 10:35:00;;;;;;;;;11.00;11.00;;;;;33.34;31.84;99202.69;6305165;20;2781555;-71
2022/06/25 10:38:00;;;;;;;;;10.33;9.33;;;;;33.50;31.90;99205.72;6299135;20;3493983;-72
2022/06/25 10:40:33;;;;;;;;;7.67;7.33;;;;;33.59;30.26;99193.06;6304604;20;2740891;-70
2022/06/25 10:43:41;;;;;;;;;9.00;9.00;;;;;33.69;30.79;99190.41;6300929;20;2748184;-68
2022/06/25 10:46:40;;;;;;;;;8.33;7.00;;;;;34.28;29.88;99184.19;6305163;20;2748268;-77
2022/06/25 10:49:30;;;;;;;;;4.00;4.00;;;;;33.84;28.76;99178.66;6311274;20;2757933;-73
2022/06/25 10:52:05;;;;;;;;;5.33;5.00;;;;;33.69;29.39;99182.06;6287107;20;2741952;-71
2022/06/25 10:54:34;;;;;;;;;5.67;5.33;;;;;33.86;28.75;99177.28;6313693;20;2741407;-73
2022/06/25 10:57:07;;;;;;;;;6.67;3.67;;;;;34.00;28.02;99179.66;6307184;20;2750269;-76
2022/06/25 10:59:46;;;;;;;;;5.00;5.00;;;;;33.88;28.13;99175.06;6305817;20;2748180;-74
2022/06/25 11:02:23;;;;;;;;;3.80;3.00;;;;;33.65;27.88;99180.88;6331333;20;2756598;-75
2022/06/25 11:04:54;;;;;;;;;6.00;5.00;;;;;33.55;29.50;99183.56;6273406;20;2746278;-71
2022/06/25 11:07:25;;;;;;;;;4.00;4.00;;;;;33.22;29.46;99176.91;6306266;20;2761748;-75
2022/06/25 11:10:03;;;;;;;;;6.00;6.00;;;;;33.17;30.40;99176.84;6308695;20;2742111;-71
2022/06/25 11:12:34;;;;;;;;;5.00;5.00;;;;;33.28;30.81;99170.31;6306784;20;2742965;-69
2022/06/25 11:15:08;;;;;;;;;8.00;6.00;;;;;34.05;29.57;99171.38;6306123;20;2727428;-74
2022/06/25 11:17:36;;;;;;;;;7.33;7.33;;;;;33.37;30.20;99173.53;6313415;20;2732609;-69
2022/06/25 11:20:12;;;;;;;;;8.67;7.00;;;;;33.69;30.01;99168.13;6306269;20;2747172;-72
2022/06/25 11:22:50;;;;;;;;;7.67;6.00;;;;;32.90;31.01;99173.88;6312064;20;2752862;-68
2022/06/25 11:30:54;;;;;;;;;6.00;6.00;;;;;33.83;29.63;99177.78;6304688;20;2744102;-72
2022/06/25 11:33:23;;;;;;;;;7.67;6.67;;;;;33.90;30.04;99172.03;6309554;20;2749229;-69
2022/06/25 11:35:52;;;;;;;;;7.33;7.33;;;;;33.71;30.24;99171.50;6308983;20;2735890;-75
2022/06/25 11:38:22;;;;;;;;;8.67;7.33;;;;;34.03;30.69;99165.22;6314352;20;2750247;-74
2022/06/25 11:40:52;;;;;;;;;13.00;9.00;;;;;34.39;31.26;99169.25;6305383;20;3490911;-72